Time;durP1;ratioP1;P1;durP2;ratioP2;P2;SDS_P1;SDS_P2;PMS_P1;PMS_P2;Temp;Humidity;BMP_temperature;BMP_pressure;BME280_temperature;BME280_humidity;BME280_pressure;Samples;Min_cycle;Max_cycle;Signal;HPM_P1;HPM_P2
2022/11/13 00:01:57;;;;;;;37.00;14.15;;;;;;;;;;10388800;22;20106;-93
2022/11/13 00:06:00;;;;;;;31.85;12.75;;;;;;;;;;10388701;22;20065;-93
2022/11/13 00:10:03;;;;;;;33.80;13.57;;;;;;;;;;10388990;22;20123;-94
2022/11/13 00:14:06;;;;;;;39.72;13.07;;;;;;;;;;10412159;22;20014;-93
2022/11/13 00:18:10;;;;;;;30.67;12.82;;;;;;;;;;10435506;22;20022;-92
2022/11/13 00:22:13;;;;;;;32.15;13.18;;;;;;;;;;10437050;22;20052;-92
2022/11/13 00:26:18;;;;;;;36.75;13.60;;;;;;;;;;10437267;22;20011;-92
2022/11/13 00:30:21;;;;;;;33.83;13.68;;;;;;;;;;10390048;22;20016;-91
2022/11/13 00:34:25;;;;;;;35.17;13.35;;;;;;;;;;10388965;22;20030;-93
2022/11/13 00:38:27;;;;;;;33.38;12.15;;;;;;;;;;10388542;22;20024;-92
2022/11/13 00:42:30;;;;;;;32.40;12.55;;;;;;;;;;10388520;22;20424;-93
2022/11/13 00:46:33;;;;;;;34.72;12.13;;;;;;;;;;10388565;22;20019;-92
2022/11/13 00:50:37;;;;;;;32.50;13.50;;;;;;;;;;10390219;22;20080;-93
2022/11/13 00:54:40;;;;;;;41.90;14.13;;;;;;;;;;10391787;22;20016;-93
2022/11/13 00:58:42;;;;;;;37.85;14.18;;;;;;;;;;10391937;22;20030;-93
2022/11/13 01:02:45;;;;;;;36.72;13.82;;;;;;;;;;10392001;22;20089;-93
2022/11/13 01:06:49;;;;;;;37.78;13.27;;;;;;;;;;10391527;22;20019;-92
2022/11/13 01:10:52;;;;;;;39.35;14.57;;;;;;;;;;10391946;22;20440;-93
2022/11/13 01:14:54;;;;;;;43.75;14.00;;;;;;;;;;10391736;22;20050;-92
2022/11/13 01:18:57;;;;;;;36.42;12.80;;;;;;;;;;10391653;22;20531;-93
2022/11/13 01:23:04;;;;;;;34.15;12.35;;;;;;;;;;10391698;22;20107;-93
2022/11/13 01:27:07;;;;;;;41.20;15.10;;;;;;;;;;10364317;22;20402;-92
2022/11/13 01:31:11;;;;;;;39.00;12.68;;;;;;;;;;10391589;22;20045;-92
2022/11/13 01:35:13;;;;;;;49.53;14.63;;;;;;;;;;10391627;22;20072;-93
2022/11/13 01:39:18;;;;;;;48.88;14.52;;;;;;;;;;10391235;22;20107;-93
2022/11/13 01:43:25;;;;;;;43.85;14.18;;;;;;;;;;10391202;22;20015;-93
2022/11/13 01:47:28;;;;;;;38.40;14.05;;;;;;;;;;10391183;22;20024;-93
2022/11/13 01:51:34;;;;;;;46.72;14.55;;;;;;;;;;10390832;22;20019;-92
2022/11/13 01:55:38;;;;;;;39.33;14.07;;;;;;;;;;10407151;22;20042;-92
2022/11/13 01:59:44;;;;;;;41.10;12.63;;;;;;;;;;10390685;22;20023;-92
2022/11/13 02:03:47;;;;;;;46.67;13.32;;;;;;;;;;10407611;22;20023;-93
2022/11/13 02:07:49;;;;;;;35.53;12.90;;;;;;;;;;10390649;22;20019;-93
2022/11/13 02:11:54;;;;;;;45.47;14.15;;;;;;;;;;10390885;22;20023;-92
2022/11/13 02:15:58;;;;;;;43.22;13.73;;;;;;;;;;10391415;22;20016;-96
2022/11/13 02:20:02;;;;;;;46.63;16.58;;;;;;;;;;10390974;22;20432;-93
2022/11/13 02:24:25;;;;;;;50.95;16.42;;;;;;;;;;10390011;22;20027;-92
2022/11/13 02:28:28;;;;;;;41.10;13.52;;;;;;;;;;10406303;22;20020;-93
2022/11/13 02:32:30;;;;;;;48.60;15.05;;;;;;;;;;10389756;22;20488;-93
2022/11/13 02:36:34;;;;;;;48.55;15.65;;;;;;;;;;10389710;22;20090;-92
2022/11/13 02:40:38;;;;;;;45.53;14.55;;;;;;;;;;10389485;22;20019;-93
2022/11/13 02:44:41;;;;;;;44.25;15.38;;;;;;;;;;10362609;22;20020;-93
2022/11/13 02:48:43;;;;;;;48.67;16.17;;;;;;;;;;10389324;22;20348;-93
2022/11/13 02:52:46;;;;;;;49.17;16.38;;;;;;;;;;10389100;22;20016;-94
2022/11/13 02:56:50;;;;;;;47.53;14.93;;;;;;;;;;10389415;22;20429;-92
2022/11/13 03:00:53;;;;;;;45.38;15.35;;;;;;;;;;10388810;22;20024;-94
2022/11/13 03:04:55;;;;;;;48.92;16.38;;;;;;;;;;10389125;22;20094;-91
2022/11/13 03:08:58;;;;;;;48.45;17.02;;;;;;;;;;10387525;22;20345;-93
2022/11/13 03:13:02;;;;;;;53.88;17.02;;;;;;;;;;10388855;22;20452;-91
2022/11/13 03:17:05;;;;;;;51.65;17.60;;;;;;;;;;10390598;22;20475;-92
2022/11/13 03:21:11;;;;;;;50.88;17.15;;;;;;;;;;10388281;22;20027;-93
2022/11/13 03:25:13;;;;;;;59.30;18.48;;;;;;;;;;10405314;22;20016;-91
2022/11/13 03:29:19;;;;;;;43.67;14.93;;;;;;;;;;10387131;22;20102;-90
2022/11/13 03:33:22;;;;;;;48.25;15.45;;;;;;;;;;10387107;22;20360;-92
2022/11/13 03:37:25;;;;;;;45.88;15.93;;;;;;;;;;10361532;22;20023;-93
2022/11/13 03:41:28;;;;;;;42.72;15.82;;;;;;;;;;10389103;22;20372;-94
2022/11/13 03:45:31;;;;;;;48.53;15.93;;;;;;;;;;10389098;22;20074;-90
2022/11/13 03:49:34;;;;;;;42.75;15.32;;;;;;;;;;10388374;22;20031;-92
2022/11/13 03:53:37;;;;;;;43.22;16.95;;;;;;;;;;10389044;22;20065;-92
2022/11/13 03:57:39;;;;;;;42.70;16.92;;;;;;;;;;10388695;22;20474;-92
2022/11/13 04:01:43;;;;;;;46.47;16.27;;;;;;;;;;10388097;22;20020;-91
2022/11/13 04:05:48;;;;;;;49.55;16.50;;;;;;;;;;10388142;22;20609;-92
2022/11/13 04:09:50;;;;;;;47.63;15.13;;;;;;;;;;10388208;22;20374;-92
2022/11/13 04:13:53;;;;;;;46.25;16.50;;;;;;;;;;10388816;22;20020;-92
2022/11/13 04:17:56;;;;;;;45.67;16.02;;;;;;;;;;10388669;22;20012;-92
2022/11/13 04:21:59;;;;;;;37.92;13.77;;;;;;;;;;10388800;22;20024;-92
2022/11/13 04:26:02;;;;;;;40.63;14.98;;;;;;;;;;10390310;22;20463;-92
2022/11/13 04:30:06;;;;;;;56.20;18.45;;;;;;;;;;10391844;22;20020;-92
2022/11/13 04:34:10;;;;;;;52.13;18.20;;;;;;;;;;10392021;22;20027;-92
2022/11/13 04:38:13;;;;;;;53.78;19.92;;;;;;;;;;10364837;22;20020;-90
2022/11/13 04:46:35;;;;;;;58.15;21.30;;;;;;;;;;10391885;22;20463;-91
2022/11/13 04:50:39;;;;;;;61.88;22.63;;;;;;;;;;10392007;22;20080;-92
2022/11/13 04:54:42;;;;;;;57.47;19.42;;;;;;;;;;10401567;22;20032;-93
2022/11/13 04:58:44;;;;;;;53.88;20.10;;;;;;;;;;10411336;22;20200;-93
2022/11/13 05:02:48;;;;;;;52.30;18.70;;;;;;;;;;10439716;22;20011;-91
2022/11/13 05:06:52;;;;;;;48.67;17.63;;;;;;;;;;10440772;22;19999;-91
2022/11/13 05:10:54;;;;;;;54.13;20.35;;;;;;;;;;10402153;22;20320;-93
2022/11/13 05:14:57;;;;;;;55.67;24.70;;;;;;;;;;10392456;22;20016;-93
2022/11/13 05:19:00;;;;;;;52.58;19.83;;;;;;;;;;10392069;22;20026;-93
2022/11/13 05:23:03;;;;;;;48.30;19.00;;;;;;;;;;10391732;22;20020;-93
2022/11/13 05:27:06;;;;;;;61.50;22.45;;;;;;;;;;10391629;22;20019;-92
2022/11/13 05:31:11;;;;;;;52.85;20.33;;;;;;;;;;10391635;22;20020;-91
2022/11/13 05:35:14;;;;;;;52.25;21.00;;;;;;;;;;10391314;22;20020;-93
2022/11/13 05:39:18;;;;;;;53.90;18.80;;;;;;;;;;10390904;22;20020;-93
2022/11/13 05:43:20;;;;;;;48.38;17.75;;;;;;;;;;10391768;22;20019;-93
2022/11/13 05:47:23;;;;;;;49.65;18.33;;;;;;;;;;10391670;22;20391;-91
2022/11/13 05:51:28;;;;;;;54.95;21.45;;;;;;;;;;10391791;22;20020;-93
2022/11/13 05:55:31;;;;;;;57.53;20.42;;;;;;;;;;10391388;22;20020;-93
2022/11/13 05:59:34;;;;;;;49.88;18.40;;;;;;;;;;10372531;22;20028;-93
2022/11/13 06:03:37;;;;;;;44.05;16.80;;;;;;;;;;10391078;22;20026;-92
2022/11/13 06:07:40;;;;;;;42.83;19.33;;;;;;;;;;10390898;22;20496;-92
2022/11/13 06:11:44;;;;;;;52.28;18.70;;;;;;;;;;10391055;22;20081;-93
2022/11/13 06:15:47;;;;;;;54.03;20.30;;;;;;;;;;10390428;22;20072;-92
2022/11/13 06:19:49;;;;;;;49.70;19.15;;;;;;;;;;10390417;22;20501;-92
2022/11/13 06:23:52;;;;;;;51.80;18.58;;;;;;;;;;10390529;22;20030;-93
2022/11/13 06:27:56;;;;;;;54.05;21.13;;;;;;;;;;10390602;22;20015;-93
2022/11/13 06:31:59;;;;;;;44.45;18.48;;;;;;;;;;10390231;22;20031;-93
2022/11/13 06:36:02;;;;;;;56.58;18.58;;;;;;;;;;10389325;22;20069;-93
2022/11/13 06:40:07;;;;;;;55.70;23.92;;;;;;;;;;10390291;22;20012;-92
2022/11/13 06:44:11;;;;;;;53.17;22.23;;;;;;;;;;10390165;22;20043;-91
2022/11/13 06:48:13;;;;;;;47.97;19.30;;;;;;;;;;10389567;22;20448;-94
2022/11/13 06:52:16;;;;;;;44.88;16.33;;;;;;;;;;10390333;22;20050;-93
2022/11/13 06:56:19;;;;;;;45.78;17.35;;;;;;;;;;10390880;22;20026;-94
2022/11/13 07:00:23;;;;;;;51.03;18.27;;;;;;;;;;10390769;22;20023;-95
2022/11/13 07:04:26;;;;;;;49.67;18.30;;;;;;;;;;10389891;22;20119;-91
2022/11/13 07:08:28;;;;;;;47.30;17.90;;;;;;;;;;10388781;22;20165;-95
2022/11/13 07:12:31;;;;;;;45.75;18.92;;;;;;;;;;10389475;22;20049;-95
2022/11/13 07:16:36;;;;;;;46.08;19.90;;;;;;;;;;10387370;22;20389;-94
2022/11/13 07:20:39;;;;;;;52.33;20.05;;;;;;;;;;10387564;22;20074;-93
2022/11/13 07:24:41;;;;;;;61.38;24.85;;;;;;;;;;10387921;22;20046;-95
2022/11/13 07:28:44;;;;;;;78.60;32.08;;;;;;;;;;10388864;22;20028;-93
2022/11/13 07:32:48;;;;;;;64.40;24.67;;;;;;;;;;10390467;22;20026;-93
2022/11/13 07:36:51;;;;;;;44.30;20.20;;;;;;;;;;10390015;22;20113;-94
2022/11/13 07:40:53;;;;;;;44.40;19.85;;;;;;;;;;10390430;22;20042;-95
2022/11/13 07:44:56;;;;;;;53.55;21.35;;;;;;;;;;10390228;22;20019;-93
2022/11/13 07:48:59;;;;;;;41.33;17.83;;;;;;;;;;10390416;22;20019;-94
2022/11/13 07:53:04;;;;;;;69.88;31.35;;;;;;;;;;10390303;22;20022;-92
2022/11/13 07:57:07;;;;;;;53.92;23.35;;;;;;;;;;10386598;22;20514;-92
2022/11/13 08:01:10;;;;;;;74.40;30.38;;;;;;;;;;10404111;22;20567;-94
2022/11/13 08:05:18;;;;;;;33.83;14.27;;;;;;;;;;10385640;22;20016;-92
2022/11/13 08:09:24;;;;;;;64.03;25.40;;;;;;;;;;10386286;22;20043;-95
2022/11/13 08:13:26;;;;;;;79.45;27.45;;;;;;;;;;10385688;22;20015;-92
2022/11/13 08:17:29;;;;;;;65.80;27.48;;;;;;;;;;10386161;22;20028;-95
2022/11/13 08:21:35;;;;;;;52.42;22.77;;;;;;;;;;10386187;22;20126;-93
2022/11/13 08:25:38;;;;;;;47.25;18.45;;;;;;;;;;10387429;22;20723;-96
2022/11/13 08:29:41;;;;;;;48.92;25.58;;;;;;;;;;10387065;22;20043;-93
2022/11/13 08:33:47;;;;;;;34.33;14.23;;;;;;;;;;10386553;22;20483;-94
2022/11/13 08:37:51;;;;;;;49.85;22.08;;;;;;;;;;10387885;22;20286;-94
2022/11/13 08:41:54;;;;;;;35.28;14.57;;;;;;;;;;10386185;22;20039;-91
2022/11/13 08:45:56;;;;;;;40.45;16.95;;;;;;;;;;10387244;22;20047;-94
2022/11/13 08:49:59;;;;;;;47.05;19.15;;;;;;;;;;10386316;22;20026;-92
2022/11/13 08:54:03;;;;;;;59.67;27.63;;;;;;;;;;10384979;22;20490;-95
2022/11/13 08:58:07;;;;;;;37.67;17.40;;;;;;;;;;10386194;22;20020;-93
2022/11/13 09:02:14;;;;;;;43.75;17.33;;;;;;;;;;10385184;22;20027;-94
2022/11/13 09:06:18;;;;;;;41.55;17.80;;;;;;;;;;10401729;22;20015;-93
2022/11/13 09:10:22;;;;;;;49.60;20.48;;;;;;;;;;10386748;22;20336;-93
2022/11/13 09:14:39;;;;;;;27.98;13.77;;;;;;;;;;10386612;22;20031;-95
2022/11/13 09:18:43;;;;;;;47.35;20.88;;;;;;;;;;10390514;22;20376;-95
2022/11/13 09:22:48;;;;;;;42.33;18.88;;;;;;;;;;10406906;22;20344;-92
2022/11/13 09:26:53;;;;;;;33.65;15.90;;;;;;;;;;10389616;22;20062;-93
2022/11/13 09:30:56;;;;;;;70.05;31.17;;;;;;;;;;10389495;22;20047;-95
2022/11/13 09:34:58;;;;;;;34.40;13.68;;;;;;;;;;10387070;22;20016;-93
2022/11/13 09:39:01;;;;;;;29.60;13.57;;;;;;;;;;10388198;22;20066;-96
2022/11/13 09:43:13;;;;;;;31.10;13.82;;;;;;;;;;10389389;22;20023;-94
2022/11/13 09:47:21;;;;;;;46.47;24.33;;;;;;;;;;10389540;22;20023;-92
2022/11/13 09:51:35;;;;;;;42.38;18.60;;;;;;;;;;10419577;22;20033;-93
2022/11/13 09:55:45;;;;;;;97.53;41.20;;;;;;;;;;10447995;22;20020;-94
2022/11/13 09:59:54;;;;;;;26.77;13.25;;;;;;;;;;10436748;22;20008;-93
2022/11/13 10:04:02;;;;;;;78.40;32.88;;;;;;;;;;10455222;22;20003;-92
2022/11/13 10:08:11;;;;;;;29.02;13.30;;;;;;;;;;10373773;22;20318;-93
2022/11/13 10:12:15;;;;;;;35.83;15.10;;;;;;;;;;10408171;22;20023;-91
2022/11/13 10:16:31;;;;;;;37.28;18.40;;;;;;;;;;10389865;22;20020;-94
2022/11/13 10:20:39;;;;;;;33.17;13.88;;;;;;;;;;10389644;22;20042;-93
2022/11/13 10:24:44;;;;;;;78.38;29.23;;;;;;;;;;10406176;22;20050;-90
2022/11/13 10:28:47;;;;;;;24.60;11.43;;;;;;;;;;10389323;22;20340;-92
2022/11/13 10:32:52;;;;;;;27.05;12.05;;;;;;;;;;10390444;22;20153;-92
2022/11/13 10:37:13;;;;;;;43.05;19.30;;;;;;;;;;10363024;22;20023;-93
2022/11/13 10:41:17;;;;;;;;;;;;;;;;;;10407682;22;20039;-93
2022/11/13 10:45:22;;;;;;;36.10;17.60;;;;;;;;;;10390440;22;19994;-92
2022/11/13 10:49:28;;;;;;;29.70;14.18;;;;;;;;;;10390115;22;20068;-94
2022/11/13 10:53:38;;;;;;;33.65;15.02;;;;;;;;;;10407112;22;20456;-93
2022/11/13 10:57:41;;;;;;;25.80;11.65;;;;;;;;;;10390183;22;20035;-93
2022/11/13 11:01:45;;;;;;;35.22;15.68;;;;;;;;;;10389863;22;20428;-92
2022/11/13 11:05:55;;;;;;;38.67;16.70;;;;;;;;;;10389883;22;20015;-92
2022/11/13 11:09:57;;;;;;;29.98;12.88;;;;;;;;;;10407258;22;20094;-93
2022/11/13 11:14:20;;;;;;;26.02;13.80;;;;;;;;;;10389825;22;20016;-93
2022/11/13 11:18:24;;;;;;;;;;;;;;;;;;10390535;22;20061;-91
2022/11/13 11:22:33;;;;;;;50.05;18.92;;;;;;;;;;10389654;22;19930;-94
2022/11/13 11:26:39;;;;;;;40.05;16.98;;;;;;;;;;10404846;22;20039;-92
2022/11/13 11:30:56;;;;;;;52.85;20.92;;;;;;;;;;10405188;22;20019;-93
2022/11/13 11:35:17;;;;;;;26.75;13.38;;;;;;;;;;10401644;22;20065;-94
2022/11/13 11:44:38;;;;;;;29.27;13.23;;;;;;;;;;10363097;22;20454;-93
2022/11/13 11:48:44;;;;;;;28.33;13.82;;;;;;;;;;10402541;22;20467;-94
2022/11/13 11:53:11;;;;;;;41.08;20.02;;;;;;;;;;10356176;22;20110;-93
2022/11/13 12:08:29;;;;;;;32.90;13.52;;;;;;;;;;10384988;22;20031;-92
2022/11/13 12:13:18;;;;;;;33.28;15.38;;;;;;;;;;10385596;22;20408;-93
2022/11/13 12:17:46;;;;;;;27.50;11.55;;;;;;;;;;10385097;22;20039;-93
2022/11/13 12:22:25;;;;;;;30.38;13.30;;;;;;;;;;10384457;22;20057;-92
2022/11/13 12:26:46;;;;;;;30.52;13.48;;;;;;;;;;10385733;22;20050;-95
2022/11/13 12:31:14;;;;;;;26.48;12.18;;;;;;;;;;10384294;22;20024;-93
2022/11/13 12:35:37;;;;;;;28.65;12.70;;;;;;;;;;10383572;22;20052;-90
2022/11/13 12:40:00;;;;;;;28.00;12.07;;;;;;;;;;10382841;22;20028;-92
2022/11/13 12:44:33;;;;;;;30.27;13.77;;;;;;;;;;10375490;22;20027;-92
2022/11/13 12:53:55;;;;;;;30.85;14.15;;;;;;;;;;10385798;22;20087;-93
2022/11/13 12:58:18;;;;;;;81.32;35.28;;;;;;;;;;10403149;22;20077;-92
2022/11/13 13:02:51;;;;;;;35.22;14.95;;;;;;;;;;10385930;22;20697;-91
2022/11/13 13:07:21;;;;;;;36.72;15.40;;;;;;;;;;10359862;22;20402;-94
2022/11/13 13:22:30;;;;;;;36.38;17.20;;;;;;;;;;10379569;22;20034;-91
2022/11/13 13:31:30;;;;;;;35.50;14.73;;;;;;;;;;10386278;22;20080;-93
2022/11/13 13:35:47;;;;;;;36.85;15.85;;;;;;;;;;10405398;22;20039;-92
2022/11/13 13:40:18;;;;;;;41.00;18.70;;;;;;;;;;10404231;22;20421;-95
2022/11/13 13:44:45;;;;;;;39.83;17.27;;;;;;;;;;10385670;22;20016;-92
2022/11/13 13:53:33;;;;;;;31.90;15.38;;;;;;;;;;10386406;22;20097;-92
2022/11/13 13:57:52;;;;;;;35.47;14.43;;;;;;;;;;10356700;22;20054;-93
2022/11/13 14:02:03;;;;;;;110.55;35.28;;;;;;;;;;10402689;22;20477;-95
2022/11/13 14:11:25;;;;;;;63.28;23.33;;;;;;;;;;10385610;22;20023;-94
2022/11/13 14:15:38;;;;;;;36.50;15.73;;;;;;;;;;10384676;22;20020;-94
2022/11/13 14:19:51;;;;;;;35.80;16.30;;;;;;;;;;10385312;22;20022;-91
2022/11/13 14:24:01;;;;;;;35.22;15.88;;;;;;;;;;10385878;22;20456;-90
2022/11/13 14:28:20;;;;;;;44.67;19.60;;;;;;;;;;10402641;22;20061;-93
2022/11/13 14:32:31;;;;;;;36.97;16.23;;;;;;;;;;10401894;22;20016;-92
2022/11/13 14:36:35;;;;;;;43.40;16.38;;;;;;;;;;10402860;22;20102;-91
2022/11/13 14:40:38;;;;;;;35.00;16.90;;;;;;;;;;10386388;22;20015;-91
2022/11/13 14:44:41;;;;;;;42.45;17.23;;;;;;;;;;10388395;22;20456;-92
2022/11/13 14:48:53;;;;;;;38.53;16.42;;;;;;;;;;10387550;22;20023;-91
2022/11/13 14:53:02;;;;;;;54.78;22.83;;;;;;;;;;10383663;22;20142;-91
2022/11/13 14:57:08;;;;;;;49.47;21.70;;;;;;;;;;10383640;22;20020;-92
2022/11/13 15:01:16;;;;;;;60.03;25.50;;;;;;;;;;10383903;22;20440;-93
2022/11/13 15:05:21;;;;;;;43.67;22.05;;;;;;;;;;10384274;22;20039;-92
2022/11/13 15:09:25;;;;;;;42.47;19.77;;;;;;;;;;10385167;22;20413;-92
2022/11/13 15:13:28;;;;;;;48.97;21.75;;;;;;;;;;10384521;22;20432;-92
2022/11/13 15:17:33;;;;;;;57.00;27.65;;;;;;;;;;10384911;22;20066;-91
2022/11/13 15:21:37;;;;;;;57.97;21.85;;;;;;;;;;10385189;22;20098;-93
2022/11/13 15:25:42;;;;;;;44.10;18.08;;;;;;;;;;10385934;22;20723;-92
2022/11/13 15:29:45;;;;;;;52.90;21.85;;;;;;;;;;10385712;22;20015;-92
2022/11/13 15:33:48;;;;;;;339.25;137.65;;;;;;;;;;10385379;22;20026;-92
2022/11/13 15:37:53;;;;;;;107.43;42.60;;;;;;;;;;10385436;22;20100;-92
2022/11/13 15:41:57;;;;;;;48.90;19.83;;;;;;;;;;10386100;22;20026;-93
2022/11/13 15:46:00;;;;;;;47.88;19.35;;;;;;;;;;10393725;22;20015;-92
2022/11/13 15:50:46;;;;;;;45.35;20.00;;;;;;;;;;10377980;22;20070;-93
2022/11/13 15:54:56;;;;;;;53.70;23.48;;;;;;;;;;10179351;23;20017;-95
2022/11/13 16:04:19;;;;;;;86.38;32.83;;;;;;;;;;10201038;23;20041;-93
2022/11/13 16:08:29;;;;;;;55.53;22.45;;;;;;;;;;10201329;23;20069;-93
2022/11/13 16:12:33;;;;;;;54.28;24.35;;;;;;;;;;10179170;23;20071;-93
2022/11/13 16:16:38;;;;;;;57.88;25.27;;;;;;;;;;10181614;23;20052;-94
2022/11/13 16:20:41;;;;;;;52.10;22.10;;;;;;;;;;10206240;23;20032;-94
2022/11/13 16:24:44;;;;;;;86.00;36.88;;;;;;;;;;10235895;23;20390;-94
2022/11/13 16:28:51;;;;;;;58.67;25.20;;;;;;;;;;10244183;23;20047;-93
2022/11/13 16:32:54;;;;;;;50.50;21.30;;;;;;;;;;10294784;23;20048;-94
2022/11/13 16:36:57;;;;;;;151.95;61.75;;;;;;;;;;10280389;23;20013;-93
2022/11/13 16:41:01;;;;;;;123.82;53.83;;;;;;;;;;10255755;23;20013;-93
2022/11/13 16:45:06;;;;;;;175.43;61.78;;;;;;;;;;10284472;23;20024;-93
2022/11/13 16:49:17;;;;;;;134.40;45.78;;;;;;;;;;10287213;23;20009;-92
2022/11/13 16:53:21;;;;;;;313.58;107.07;;;;;;;;;;10303119;23;20009;-93
2022/11/13 16:57:25;;;;;;;57.47;25.42;;;;;;;;;;10253421;23;20331;-94
2022/11/13 17:01:30;;;;;;;61.95;25.30;;;;;;;;;;10241444;23;20025;-94
2022/11/13 17:05:33;;;;;;;49.85;20.75;;;;;;;;;;10239273;23;20086;-93
2022/11/13 17:09:39;;;;;;;48.85;19.05;;;;;;;;;;10238608;23;20024;-93
2022/11/13 17:13:42;;;;;;;46.80;19.42;;;;;;;;;;10254512;23;20025;-93
2022/11/13 17:17:47;;;;;;;39.90;19.73;;;;;;;;;;10371039;22;20099;-94
2022/11/13 17:21:50;;;;;;;99.70;39.17;;;;;;;;;;10391461;22;20023;-92
2022/11/13 17:25:53;;;;;;;57.35;22.95;;;;;;;;;;10391443;22;20062;-92
2022/11/13 17:29:56;;;;;;;72.65;25.92;;;;;;;;;;10391515;22;20016;-93
2022/11/13 17:34:00;;;;;;;56.78;22.35;;;;;;;;;;10390698;22;20384;-92
2022/11/13 17:38:04;;;;;;;85.70;42.70;;;;;;;;;;10396482;22;20015;-92
2022/11/13 17:42:15;;;;;;;125.27;47.87;;;;;;;;;;10372534;22;20024;-94
2022/11/13 17:46:19;;;;;;;76.18;26.60;;;;;;;;;;10398259;22;20027;-93
2022/11/13 17:50:26;;;;;;;75.38;27.45;;;;;;;;;;10407276;22;20475;-94
2022/11/13 17:54:29;;;;;;;90.43;44.03;;;;;;;;;;10419839;22;20027;-93
2022/11/13 17:58:39;;;;;;;91.78;31.38;;;;;;;;;;10398027;22;20015;-93
2022/11/13 18:02:44;;;;;;;63.40;24.10;;;;;;;;;;10394658;22;20045;-92
2022/11/13 18:06:49;;;;;;;51.03;20.40;;;;;;;;;;10370531;22;20023;-92
2022/11/13 18:10:51;;;;;;;72.65;27.88;;;;;;;;;;10395849;22;20016;-93
2022/11/13 18:14:55;;;;;;;65.05;28.02;;;;;;;;;;10394603;22;20031;-93
2022/11/13 18:19:02;;;;;;;77.63;31.05;;;;;;;;;;10395207;22;20019;-93
2022/11/13 18:23:07;;;;;;;66.68;23.98;;;;;;;;;;10312818;22;20069;-93
2022/11/13 18:27:09;;;;;;;67.55;27.20;;;;;;;;;;10391387;22;20027;-93
2022/11/13 18:31:18;;;;;;;52.05;20.85;;;;;;;;;;10390323;22;20019;-93
2022/11/13 18:35:21;;;;;;;140.88;47.70;;;;;;;;;;10390078;22;20022;-93
2022/11/13 18:39:26;;;;;;;50.85;21.80;;;;;;;;;;10390953;22;20094;-93
2022/11/13 18:43:28;;;;;;;49.92;19.50;;;;;;;;;;10389895;22;20047;-94
2022/11/13 18:47:33;;;;;;;46.15;18.85;;;;;;;;;;10390944;22;20023;-94
2022/11/13 18:51:36;;;;;;;49.50;21.98;;;;;;;;;;10390461;22;20015;-93
2022/11/13 18:55:42;;;;;;;56.83;21.70;;;;;;;;;;10390886;22;20020;-94
2022/11/13 18:59:46;;;;;;;50.03;21.70;;;;;;;;;;10408599;22;20016;-94
2022/11/13 19:03:50;;;;;;;91.43;31.48;;;;;;;;;;10391120;22;20074;-94
2022/11/13 19:07:54;;;;;;;52.42;23.58;;;;;;;;;;10391592;22;20015;-95
2022/11/13 19:11:59;;;;;;;41.70;17.50;;;;;;;;;;10390362;22;20035;-94
2022/11/13 19:16:07;;;;;;;51.90;22.45;;;;;;;;;;10389231;22;20348;-95
2022/11/13 19:20:11;;;;;;;51.42;21.23;;;;;;;;;;10388755;22;20028;-94
2022/11/13 19:24:14;;;;;;;41.05;16.23;;;;;;;;;;10389743;22;20019;-94
2022/11/13 19:28:20;;;;;;;84.80;31.52;;;;;;;;;;10390207;22;20463;-94
2022/11/13 19:32:24;;;;;;;177.65;69.90;;;;;;;;;;10389853;22;20035;-94
2022/11/13 19:36:30;;;;;;;234.10;56.35;;;;;;;;;;10363389;22;20318;-95
2022/11/13 19:40:35;;;;;;;100.88;29.80;;;;;;;;;;10362960;22;20505;-92
2022/11/13 19:44:41;;;;;;;143.00;49.90;;;;;;;;;;10362885;22;20027;-94
2022/11/13 19:48:46;;;;;;;199.15;64.95;;;;;;;;;;10389991;22;20325;-93
2022/11/13 19:52:50;;;;;;;63.17;21.70;;;;;;;;;;10362434;22;20019;-94
2022/11/13 19:56:53;;;;;;;273.00;79.55;;;;;;;;;;10361750;22;20028;-93
2022/11/13 20:00:58;;;;;;;85.28;25.70;;;;;;;;;;10389247;22;20023;-93
2022/11/13 20:05:02;;;;;;;95.97;42.33;;;;;;;;;;10390222;22;20023;-93
2022/11/13 20:09:05;;;;;;;132.32;42.90;;;;;;;;;;10363510;22;20023;-93
2022/11/13 20:13:09;;;;;;;97.40;34.03;;;;;;;;;;10389988;22;20016;-94
2022/11/13 20:17:14;;;;;;;47.65;19.65;;;;;;;;;;10363190;22;20448;-95
2022/11/13 20:21:23;;;;;;;70.72;27.08;;;;;;;;;;10389534;22;20031;-94
2022/11/13 20:25:31;;;;;;;37.97;18.38;;;;;;;;;;10360618;22;20097;-94
2022/11/13 20:29:34;;;;;;;47.40;19.77;;;;;;;;;;10362752;22;20106;-94
2022/11/13 20:33:40;;;;;;;38.75;15.55;;;;;;;;;;10388239;22;20020;-93
2022/11/13 20:37:43;;;;;;;35.58;15.05;;;;;;;;;;10361943;22;20023;-94
2022/11/13 20:41:47;;;;;;;38.30;15.80;;;;;;;;;;10389717;22;20019;-94
2022/11/13 20:45:50;;;;;;;43.08;17.30;;;;;;;;;;10389289;22;20054;-93
2022/11/13 20:49:56;;;;;;;44.97;16.92;;;;;;;;;;10389968;22;20028;-93
2022/11/13 20:53:59;;;;;;;45.40;17.50;;;;;;;;;;10363140;22;20036;-94
2022/11/13 20:58:02;;;;;;;41.10;15.02;;;;;;;;;;10389676;22;20451;-92
2022/11/13 21:02:05;;;;;;;56.38;22.48;;;;;;;;;;10361927;22;20102;-95
2022/11/13 21:06:11;;;;;;;42.28;16.85;;;;;;;;;;10389371;22;20016;-93
2022/11/13 21:10:13;;;;;;;38.50;16.38;;;;;;;;;;10392193;22;20151;-93
2022/11/13 21:14:17;;;;;;;41.65;16.85;;;;;;;;;;10392815;22;20462;-93
2022/11/13 21:18:20;;;;;;;43.60;16.67;;;;;;;;;;10392079;22;20020;-94
2022/11/13 21:22:26;;;;;;;41.85;17.35;;;;;;;;;;10376879;22;20092;-94
2022/11/13 21:27:01;;;;;;;44.03;17.02;;;;;;;;;;10395788;22;20020;-93
2022/11/13 21:31:08;;;;;;;31.67;11.40;;;;;;;;;;10404982;22;20019;-92
2022/11/13 21:35:10;;;;;;;40.17;15.40;;;;;;;;;;10392149;22;20611;-93
2022/11/13 21:39:15;;;;;;;40.22;16.70;;;;;;;;;;10391672;22;20045;-94
2022/11/13 21:43:17;;;;;;;36.63;16.90;;;;;;;;;;10391972;22;20015;-94
2022/11/13 21:47:20;;;;;;;36.53;15.48;;;;;;;;;;10391906;22;20467;-92
2022/11/13 21:51:23;;;;;;;43.83;17.90;;;;;;;;;;10389016;22;20023;-95
2022/11/13 21:55:27;;;;;;;38.50;14.50;;;;;;;;;;10392158;22;20095;-96
2022/11/13 21:59:30;;;;;;;41.33;16.80;;;;;;;;;;10391155;22;20024;-93
2022/11/13 22:03:34;;;;;;;41.55;16.98;;;;;;;;;;10391281;22;20012;-92
2022/11/13 22:07:37;;;;;;;44.03;17.58;;;;;;;;;;10391398;22;20049;-93
2022/11/13 22:11:41;;;;;;;42.05;16.27;;;;;;;;;;10389014;22;20030;-93
2022/11/13 22:15:43;;;;;;;39.40;17.25;;;;;;;;;;10391071;22;20026;-94
2022/11/13 22:19:46;;;;;;;45.17;18.30;;;;;;;;;;10390713;22;20016;-92
2022/11/13 22:23:49;;;;;;;45.35;18.52;;;;;;;;;;10390270;22;20023;-94
2022/11/13 22:27:54;;;;;;;39.08;15.70;;;;;;;;;;10390494;22;20015;-92
2022/11/13 22:31:56;;;;;;;41.30;18.10;;;;;;;;;;10390108;22;20019;-93
2022/11/13 22:36:04;;;;;;;42.10;15.70;;;;;;;;;;10390317;22;20016;-91
2022/11/13 22:40:08;;;;;;;37.17;14.48;;;;;;;;;;10390291;22;20448;-93
2022/11/13 22:44:14;;;;;;;37.03;15.45;;;;;;;;;;10390578;22;20154;-93
2022/11/13 22:48:16;;;;;;;41.60;17.90;;;;;;;;;;10390246;22;20076;-92
2022/11/13 22:52:19;;;;;;;36.40;15.10;;;;;;;;;;10390770;22;20027;-93
2022/11/13 22:56:24;;;;;;;35.13;14.85;;;;;;;;;;10390686;22;20020;-92
2022/11/13 23:00:28;;;;;;;33.58;14.55;;;;;;;;;;10390617;22;20510;-93
2022/11/13 23:04:30;;;;;;;43.17;16.80;;;;;;;;;;10390165;22;20069;-92
2022/11/13 23:08:37;;;;;;;43.70;17.23;;;;;;;;;;10389471;22;20126;-91
2022/11/13 23:12:40;;;;;;;37.58;15.70;;;;;;;;;;10387597;22;20460;-92
2022/11/13 23:16:44;;;;;;;38.85;17.15;;;;;;;;;;10389500;22;20022;-92
2022/11/13 23:20:48;;;;;;;39.72;16.75;;;;;;;;;;10389084;22;20034;-92
2022/11/13 23:24:51;;;;;;;38.72;15.93;;;;;;;;;;10389467;22;20030;-93
2022/11/13 23:28:53;;;;;;;40.67;14.77;;;;;;;;;;10389916;22;20020;-93
2022/11/13 23:32:58;;;;;;;36.85;14.65;;;;;;;;;;10388930;22;20146;-92
2022/11/13 23:37:00;;;;;;;35.08;14.77;;;;;;;;;;10389367;22;20027;-92
2022/11/13 23:41:04;;;;;;;32.65;14.18;;;;;;;;;;10388575;22;20038;-92
2022/11/13 23:45:07;;;;;;;42.22;15.77;;;;;;;;;;10388361;22;20356;-92
2022/11/13 23:49:11;;;;;;;35.50;13.85;;;;;;;;;;10389342;22;20026;-92
2022/11/13 23:53:14;;;;;;;40.42;16.30;;;;;;;;;;10388430;22;20022;-90
2022/11/13 23:57:17;;;;;;;40.47;15.75;;;;;;;;;;10388262;22;20098;-91
